Terminal Aerodrome Forecast
Issued by NWS North Platte, NE

Home | Current Version | Previous Version | Graphics & Text | Print | Product List | Glossary On
Versions: 1 2 3 4 5 6 7 8 9 10 11 12 13 14 15 16
290
FTUS43 KLBF 201720
TAFVTN
TAF
KVTN 201720Z 2018/2118 33016G25KT P6SM SCT100
      TEMPO 2018/2020 33016G27KT P6SM BKN100
     FM202300 31012KT P6SM SKC
     FM210200 VRB05KT P6SM FEW250
     FM210900 23008KT P6SM FEW250 WS020/25040KT
     FM211300 25010KT P6SM FEW250
     FM211600 25014G20KT P6SM FEW250=

USA.gov is the U.S. government's official web portal to all federal, state and local government web resources and services.